Wetterstation Vordersexau
Wetterdaten: Woche 02.04.18 - 08.04.18 (KW14)
Datum Zeit Temp. A. Feuchte A. Luftdruck Regen Wind Richtung Taupunkt Windchill Windben
02.04.2018 00:00 2,7 C 85 % 1013,0 hPa 0,0 l/m 0,0 km/h NO 0,4 C 2,7 C 0,0 km/h
02.04.2018 01:00 1,8 C 85 % 1012,5 hPa 0,0 l/m 0,0 km/h NO -0,4 C 1,8 C 0,0 km/h
02.04.2018 02:00 1,2 C 84 % 1011,9 hPa 0,0 l/m 0,0 km/h NO -1,2 C 1,2 C 0,0 km/h
02.04.2018 03:00 0,8 C 84 % 1011,5 hPa 0,5 l/m 0,0 km/h O-NO -1,6 C 0,8 C 0,0 km/h
02.04.2018 04:00 0,7 C 83 % 1011,0 hPa 0,0 l/m 1,3 km/h NO -1,8 C 0,7 C 0,7 km/h
02.04.2018 05:00 0,4 C 82 % 1010,3 hPa 0,0 l/m 0,0 km/h O-NO -2,3 C 0,4 C 0,0 km/h
02.04.2018 06:00 -0,1 C 82 % 1010,1 hPa 0,0 l/m 0,0 km/h NO -2,8 C -0,1 C 0,0 km/h
02.04.2018 07:00 0,5 C 81 % 1009,7 hPa 0,0 l/m 0,0 km/h O -2,4 C 0,5 C 0,0 km/h
02.04.2018 08:00 3,1 C 75 % 1009,5 hPa 0,0 l/m 0,0 km/h O-SO -0,9 C 3,1 C 0,0 km/h
02.04.2018 09:00 9,4 C 85 % 1009,4 hPa 0,0 l/m 0,0 km/h W-SW 7,0 C 9,4 C 0,0 km/h
02.04.2018 10:00 11,2 C 72 % 1009,2 hPa 0,0 l/m 8,4 km/h S-SW 6,3 C 9,9 C 4,7 km/h
02.04.2018 11:00 14,2 C 63 % 1008,0 hPa 0,0 l/m 0,0 km/h SW 7,3 C 14,2 C 0,0 km/h
02.04.2018 12:00 14,9 C 59 % 1007,8 hPa 0,0 l/m 12,3 km/h W-SW 7,0 C 12,0 C 6,8 km/h
02.04.2018 13:00 16,1 C 54 % 1006,6 hPa 0,0 l/m 9,1 km/h W-SW 6,8 C 14,7 C 5,0 km/h
02.04.2018 14:00 16,9 C 50 % 1005,7 hPa 0,0 l/m 0,0 km/h W 6,4 C 16,9 C 0,0 km/h
02.04.2018 15:00 17,7 C 43 % 1005,1 hPa 0,0 l/m 0,0 km/h N-NW 5,0 C 17,7 C 0,0 km/h
02.04.2018 16:00 15,6 C 45 % 1004,3 hPa 0,0 l/m 0,0 km/h N-NO 3,7 C 15,6 C 0,0 km/h
02.04.2018 17:00 15,5 C 51 % 1003,5 hPa 0,0 l/m 0,0 km/h N 5,4 C 15,5 C 0,0 km/h
02.04.2018 18:00 13,9 C 60 % 1002,1 hPa 0,0 l/m 0,0 km/h SW 6,3 C 13,9 C 0,0 km/h
02.04.2018 19:00 12,1 C 62 % 1002,3 hPa 0,0 l/m 0,0 km/h N-NO 5,0 C 12,1 C 0,0 km/h
02.04.2018 20:00 10,6 C 66 % 1002,2 hPa 0,0 l/m 0,0 km/h NO 4,5 C 10,6 C 0,0 km/h
02.04.2018 21:00 8,8 C 69 % 1002,6 hPa 0,0 l/m 0,0 km/h NO 3,4 C 8,8 C 0,0 km/h
02.04.2018 22:00 8,9 C 73 % 1003,0 hPa 0,0 l/m 0,0 km/h NO 4,3 C 8,9 C 0,0 km/h
02.04.2018 23:00 7,8 C 77 % 1002,8 hPa 0,0 l/m 0,0 km/h NO 4,0 C 7,8 C 0,0 km/h
03.04.2018 00:00 7,8 C 77 % 1004,1 hPa 0,0 l/m 0,0 km/h N-NO 4,0 C 7,8 C 0,0 km/h
03.04.2018 01:00 8,6 C 78 % 1004,4 hPa 0,0 l/m 0,0 km/h O-NO 5,0 C 8,6 C 0,0 km/h
03.04.2018 02:00 8,6 C 76 % 1004,1 hPa 0,0 l/m 0,0 km/h S-SW 4,6 C 8,6 C 0,0 km/h
03.04.2018 03:00 10,9 C 67 % 1004,2 hPa 0,0 l/m 0,0 km/h S-SW 5,0 C 10,9 C 0,0 km/h
03.04.2018 04:00 11,3 C 62 % 1004,2 hPa 0,0 l/m 0,0 km/h O-SO 4,3 C 11,3 C 0,0 km/h
03.04.2018 05:00 8,1 C 74 % 1003,9 hPa 0,0 l/m 0,0 km/h O-SO 3,8 C 8,1 C 0,0 km/h
03.04.2018 06:00 6,9 C 79 % 1003,9 hPa 0,0 l/m 0,0 km/h SO 3,5 C 6,9 C 0,0 km/h
03.04.2018 07:00 7,4 C 79 % 1004,0 hPa 0,0 l/m 10,4 km/h O-SO 4,0 C 4,5 C 5,8 km/h
03.04.2018 08:00 9,9 C 76 % 1004,2 hPa 0,0 l/m 0,0 km/h O-SO 5,9 C 9,9 C 0,0 km/h
03.04.2018 09:00 16,1 C 63 % 1004,0 hPa 0,0 l/m 5,8 km/h W-SW 9,1 C 16,1 C 3,2 km/h
03.04.2018 10:00 21,4 C 42 % 1004,0 hPa 0,0 l/m 0,0 km/h S-SW 8,0 C 21,4 C 0,0 km/h
03.04.2018 11:00 22,2 C 41 % 1003,5 hPa 0,0 l/m 0,0 km/h N-NW 8,3 C 22,2 C 0,0 km/h
03.04.2018 12:00 24,3 C 36 % 1003,1 hPa 0,0 l/m 0,0 km/h SO 8,3 C 24,3 C 0,0 km/h
03.04.2018 13:00 23,6 C 34 % 1002,7 hPa 0,0 l/m 0,0 km/h W-SW 6,8 C 23,6 C 0,0 km/h
03.04.2018 14:00 21,7 C 39 % 1002,3 hPa 0,0 l/m 18,1 km/h W-SW 7,1 C 18,7 C 10,1 km/h
03.04.2018 15:00 20,9 C 40 % 1001,9 hPa 0,0 l/m 9,7 km/h W-SW 6,8 C 19,7 C 5,4 km/h
03.04.2018 16:00 21,4 C 39 % 1001,4 hPa 0,0 l/m 0,0 km/h W-SW 6,9 C 21,4 C 0,0 km/h
03.04.2018 17:00 21,7 C 39 % 1001,4 hPa 0,0 l/m 20,7 km/h W-SW 7,1 C 18,3 C 11,5 km/h
03.04.2018 18:00 20,9 C 37 % 1001,6 hPa 0,0 l/m 9,1 km/h W-NW 5,7 C 19,9 C 5,0 km/h
03.04.2018 19:00 16,9 C 46 % 1001,5 hPa 0,0 l/m 0,0 km/h S-SO 5,2 C 16,9 C 0,0 km/h
03.04.2018 20:00 14,9 C 53 % 1001,7 hPa 0,0 l/m 0,0 km/h NO 5,4 C 14,9 C 0,0 km/h
03.04.2018 21:00 13,9 C 60 % 1002,6 hPa 0,0 l/m 0,0 km/h N-NO 6,3 C 13,9 C 0,0 km/h
03.04.2018 22:00 12,9 C 68 % 1003,0 hPa 0,0 l/m 0,0 km/h N-NO 7,1 C 12,9 C 0,0 km/h
03.04.2018 23:00 12,3 C 69 % 1003,4 hPa 0,0 l/m 0,0 km/h S-SW 6,8 C 12,3 C 0,0 km/h
04.04.2018 00:00 12,9 C 67 % 1003,8 hPa 0,0 l/m 0,0 km/h S-SO 6,9 C 12,9 C 0,0 km/h
04.04.2018 01:00 12,9 C 67 % 1003,4 hPa 0,0 l/m 0,0 km/h S-SO 6,9 C 12,9 C 0,0 km/h
04.04.2018 02:00 11,3 C 75 % 1003,5 hPa 0,0 l/m 0,0 km/h S-SO 7,0 C 11,3 C 0,0 km/h
04.04.2018 03:00 10,8 C 79 % 1003,6 hPa 0,0 l/m 0,0 km/h S 7,3 C 10,8 C 0,0 km/h
04.04.2018 04:00 10,1 C 79 % 1003,0 hPa 0,0 l/m 0,0 km/h O-SO 6,6 C 10,1 C 0,0 km/h
04.04.2018 05:00 9,9 C 81 % 1002,5 hPa 0,0 l/m 0,0 km/h O-SO 6,8 C 9,9 C 0,0 km/h
04.04.2018 06:00 9,6 C 81 % 1002,1 hPa 0,0 l/m 0,0 km/h SO 6,5 C 9,6 C 0,0 km/h
04.04.2018 07:00 10,4 C 81 % 1002,1 hPa 0,0 l/m 0,0 km/h O-SO 7,3 C 10,4 C 0,0 km/h
04.04.2018 08:00 12,8 C 76 % 1001,8 hPa 0,0 l/m 0,0 km/h NO 8,7 C 12,8 C 0,0 km/h
04.04.2018 09:00 15,9 C 69 % 1001,8 hPa 0,0 l/m 0,0 km/h O-SO 10,2 C 15,9 C 0,0 km/h
04.04.2018 10:00 22,1 C 52 % 1001,3 hPa 0,0 l/m 0,0 km/h W 11,8 C 22,1 C 0,0 km/h
04.04.2018 11:00 25,3 C 39 % 1000,0 hPa 0,0 l/m 0,0 km/h W-SW 10,3 C 25,3 C 0,0 km/h
04.04.2018 12:00 22,9 C 42 % 999,9 hPa 0,0 l/m 0,0 km/h W-SW 9,3 C 22,9 C 0,0 km/h
04.04.2018 13:00 15,0 C 62 % 1004,4 hPa 0,0 l/m 38,2 km/h S-SW 7,8 C 6,5 C 21,2 km/h
04.04.2018 14:00 9,5 C 80 % 1005,7 hPa 0,0 l/m 12,3 km/h S 6,2 C 5,8 C 6,8 km/h
04.04.2018 15:00 10,1 C 75 % 1005,8 hPa 0,0 l/m 39,5 km/h S-SO 5,9 C -0,9 C 22,0 km/h
04.04.2018 16:00 9,9 C 80 % 1004,7 hPa 1,0 l/m 15,6 km/h N-NO 6,6 C 4,8 C 8,6 km/h
04.04.2018 17:00 15,4 C 65 % 1004,7 hPa 0,0 l/m 0,0 km/h SW 8,9 C 15,4 C 0,0 km/h
04.04.2018 18:00 12,4 C 68 % 1004,4 hPa 0,0 l/m 0,0 km/h S-SO 6,7 C 12,4 C 0,0 km/h
04.04.2018 19:00 10,9 C 71 % 1003,8 hPa 0,0 l/m 14,3 km/h SO 5,9 C 6,5 C 7,9 km/h
04.04.2018 20:00 9,5 C 74 % 1004,0 hPa 0,0 l/m 0,0 km/h S 5,1 C 9,5 C 0,0 km/h
04.04.2018 21:00 10,2 C 74 % 1005,7 hPa 0,0 l/m 0,0 km/h S-SO 5,8 C 10,2 C 0,0 km/h
04.04.2018 22:00 8,7 C 83 % 1006,4 hPa 1,0 l/m 11,7 km/h NO 6,0 C 5,2 C 6,5 km/h
04.04.2018 23:00 8,8 C 82 % 1006,3 hPa 0,0 l/m 0,0 km/h S-SW 5,9 C 8,8 C 0,0 km/h
05.04.2018 00:00 9,6 C 80 % 1006,5 hPa 0,0 l/m 0,0 km/h S-SW 6,3 C 9,6 C 0,0 km/h
05.04.2018 01:00 11,3 C 70 % 1006,6 hPa 0,0 l/m 16,2 km/h SW 6,0 C 6,2 C 9,0 km/h
05.04.2018 02:00 10,8 C 72 % 1006,9 hPa 0,0 l/m 23,3 km/h W-SW 6,0 C 3,4 C 13,0 km/h
05.04.2018 03:00 10,7 C 73 % 1006,8 hPa 0,0 l/m 9,1 km/h S-SW 6,1 C 8,9 C 5,0 km/h
05.04.2018 04:00 10,9 C 72 % 1007,3 hPa 0,0 l/m 24,0 km/h SW 6,1 C 3,3 C 13,3 km/h
05.04.2018 05:00 10,6 C 74 % 1007,8 hPa 0,0 l/m 19,4 km/h W-SW 6,2 C 4,3 C 10,8 km/h
05.04.2018 06:00 10,4 C 75 % 1008,6 hPa 0,0 l/m 42,8 km/h S-SW 6,2 C -0,9 C 23,8 km/h
05.04.2018 07:00 9,9 C 78 % 1009,6 hPa 0,0 l/m 26,6 km/h SW 6,2 C 1,3 C 14,8 km/h
05.04.2018 08:00 10,5 C 76 % 1010,1 hPa 0,0 l/m 20,1 km/h SW 6,5 C 3,9 C 11,2 km/h
05.04.2018 09:00 12,4 C 71 % 1010,6 hPa 0,0 l/m 39,5 km/h W-SW 7,3 C 2,5 C 22,0 km/h
05.04.2018 10:00 11,4 C 73 % 1011,7 hPa 0,0 l/m 33,0 km/h W-SW 6,7 C 2,1 C 18,4 km/h
05.04.2018 11:00 12,4 C 70 % 1012,0 hPa 0,0 l/m 39,5 km/h SW 7,1 C 2,5 C 22,0 km/h
05.04.2018 12:00 15,1 C 66 % 1012,0 hPa 0,0 l/m 32,4 km/h NW 8,8 C 7,4 C 18,0 km/h
05.04.2018 13:00 11,9 C 77 % 1013,1 hPa 0,5 l/m 11,7 km/h N-NW 8,0 C 8,8 C 6,5 km/h
05.04.2018 14:00 11,1 C 76 % 1013,9 hPa 0,0 l/m 13,6 km/h W-NW 7,0 C 7,1 C 7,6 km/h
05.04.2018 15:00 10,9 C 72 % 1015,0 hPa 0,5 l/m 5,8 km/h W 6,1 C 10,9 C 3,2 km/h
05.04.2018 16:00 12,7 C 62 % 1015,7 hPa 0,0 l/m 7,8 km/h N-NO 5,6 C 11,8 C 4,3 km/h
05.04.2018 17:00 11,9 C 58 % 1016,4 hPa 0,0 l/m 0,0 km/h NW 3,9 C 11,9 C 0,0 km/h
05.04.2018 18:00 10,4 C 61 % 1017,2 hPa 0,0 l/m 0,0 km/h N-NW 3,2 C 10,4 C 0,0 km/h
05.04.2018 19:00 10,2 C 61 % 1017,8 hPa 0,0 l/m 0,0 km/h N 3,0 C 10,2 C 0,0 km/h
05.04.2018 20:00 9,1 C 61 % 1018,7 hPa 0,0 l/m 0,0 km/h N-NO 2,0 C 9,1 C 0,0 km/h
05.04.2018 21:00 7,8 C 67 % 1019,1 hPa 0,0 l/m 0,0 km/h O-SO 2,1 C 7,8 C 0,0 km/h
05.04.2018 22:00 6,9 C 75 % 1019,3 hPa 0,0 l/m 0,0 km/h O-SO 2,8 C 6,9 C 0,0 km/h
05.04.2018 23:00 4,5 C 79 % 1019,3 hPa 0,0 l/m 0,0 km/h O-SO 1,2 C 4,5 C 0,0 km/h
06.04.2018 00:00 3,6 C 83 % 1019,3 hPa 0,0 l/m 0,0 km/h O-SO 1,0 C 3,6 C 0,0 km/h
06.04.2018 01:00 3,1 C 84 % 1019,2 hPa 0,0 l/m 0,0 km/h O 0,7 C 3,1 C 0,0 km/h
06.04.2018 02:00 2,8 C 84 % 1018,8 hPa 0,0 l/m 0,0 km/h O 0,4 C 2,8 C 0,0 km/h
06.04.2018 03:00 2,2 C 85 % 1018,6 hPa 0,0 l/m 0,0 km/h O-NO -0,1 C 2,2 C 0,0 km/h
06.04.2018 04:00 1,6 C 85 % 1018,3 hPa 0,0 l/m 0,0 km/h N-NO -0,6 C 1,6 C 0,0 km/h
06.04.2018 05:00 0,9 C 85 % 1017,8 hPa 0,0 l/m 0,0 km/h N-NO -1,3 C 0,9 C 0,0 km/h
06.04.2018 06:00 -0,1 C 85 % 1017,4 hPa 0,0 l/m 0,0 km/h N-NO -2,3 C -0,1 C 0,0 km/h
06.04.2018 07:00 0,4 C 85 % 1017,6 hPa 0,0 l/m 0,0 km/h N-NW -1,8 C 0,4 C 0,0 km/h
06.04.2018 08:00 4,1 C 85 % 1017,7 hPa 0,0 l/m 0,0 km/h W-NW 1,8 C 4,1 C 0,0 km/h
06.04.2018 09:00 11,1 C 72 % 1017,3 hPa 0,0 l/m 0,0 km/h N-NW 6,2 C 11,1 C 0,0 km/h
06.04.2018 10:00 13,3 C 61 % 1016,8 hPa 0,0 l/m 0,0 km/h SW 5,9 C 13,3 C 0,0 km/h
06.04.2018 11:00 16,3 C 56 % 1016,4 hPa 0,0 l/m 13,6 km/h W-SW 7,5 C 13,2 C 7,6 km/h
06.04.2018 12:00 17,5 C 56 % 1015,6 hPa 0,0 l/m 0,0 km/h W 8,6 C 17,5 C 0,0 km/h
06.04.2018 13:00 18,7 C 49 % 1014,7 hPa 0,0 l/m 3,2 km/h N 7,8 C 18,7 C 1,8 km/h
06.04.2018 14:00 20,8 C 45 % 1014,0 hPa 0,0 l/m 16,2 km/h SW 8,4 C 18,0 C 9,0 km/h
06.04.2018 15:00 23,3 C 41 % 1013,5 hPa 0,0 l/m 21,4 km/h W 9,3 C 20,3 C 11,9 km/h
06.04.2018 16:00 25,9 C 36 % 1012,7 hPa 0,0 l/m 0,0 km/h W 9,7 C 25,9 C 0,0 km/h
06.04.2018 17:00 24,6 C 37 % 1012,2 hPa 0,0 l/m 0,0 km/h W 8,9 C 24,6 C 0,0 km/h
06.04.2018 18:00 21,0 C 41 % 1011,9 hPa 0,0 l/m 0,0 km/h W 7,2 C 21,0 C 0,0 km/h
06.04.2018 19:00 15,8 C 54 % 1011,5 hPa 0,0 l/m 0,0 km/h SO 6,5 C 15,8 C 0,0 km/h
06.04.2018 20:00 11,1 C 69 % 1011,8 hPa 0,0 l/m 8,4 km/h O-SO 5,6 C 9,8 C 4,7 km/h
06.04.2018 21:00 8,7 C 76 % 1011,5 hPa 0,0 l/m 0,0 km/h O-NO 4,7 C 8,7 C 0,0 km/h
06.04.2018 22:00 7,0 C 79 % 1011,3 hPa 0,0 l/m 0,0 km/h O-NO 3,6 C 7,0 C 0,0 km/h
06.04.2018 23:00 6,1 C 81 % 1011,0 hPa 0,0 l/m 0,0 km/h NO 3,1 C 6,1 C 0,0 km/h
07.04.2018 00:00 5,9 C 79 % 1010,9 hPa 0,0 l/m 0,0 km/h NO 2,5 C 5,9 C 0,0 km/h
07.04.2018 01:00 5,1 C 82 % 1011,0 hPa 0,0 l/m 0,0 km/h N-NO 2,3 C 5,1 C 0,0 km/h
07.04.2018 02:00 4,8 C 83 % 1010,8 hPa 0,0 l/m 0,0 km/h N-NO 2,2 C 4,8 C 0,0 km/h
07.04.2018 03:00 4,5 C 83 % 1010,5 hPa 0,0 l/m 0,0 km/h NO 1,9 C 4,5 C 0,0 km/h
07.04.2018 04:00 3,6 C 84 % 1010,7 hPa 0,0 l/m 0,0 km/h O-NO 1,2 C 3,6 C 0,0 km/h
07.04.2018 05:00 3,5 C 85 % 1010,9 hPa 0,0 l/m 0,0 km/h NO 1,2 C 3,5 C 0,0 km/h
07.04.2018 06:00 2,8 C 85 % 1010,8 hPa 0,0 l/m 0,0 km/h NO 0,5 C 2,8 C 0,0 km/h
07.04.2018 07:00 3,8 C 85 % 1011,3 hPa 0,0 l/m 0,0 km/h O-NO 1,5 C 3,8 C 0,0 km/h
07.04.2018 08:00 7,6 C 83 % 1011,2 hPa 0,0 l/m 0,0 km/h O 4,9 C 7,6 C 0,0 km/h
07.04.2018 09:00 16,6 C 62 % 1011,5 hPa 0,0 l/m 0,0 km/h NW 9,3 C 16,6 C 0,0 km/h
07.04.2018 10:00 18,9 C 50 % 1011,3 hPa 0,0 l/m 0,0 km/h W-NW 8,2 C 18,9 C 0,0 km/h
07.04.2018 11:00 22,1 C 43 % 1010,9 hPa 0,0 l/m 0,0 km/h W 8,9 C 22,1 C 0,0 km/h
07.04.2018 12:00 24,1 C 39 % 1010,4 hPa 0,0 l/m 8,4 km/h NW 9,3 C 23,6 C 4,7 km/h
07.04.2018 13:00 24,7 C 39 % 1009,8 hPa 0,0 l/m 0,0 km/h W-NW 9,8 C 24,7 C 0,0 km/h
07.04.2018 14:00 26,8 C 37 % 1009,0 hPa 0,0 l/m 0,0 km/h W-NW 10,9 C 26,8 C 0,0 km/h
07.04.2018 15:00 29,9 C 27 % 1008,2 hPa 0,0 l/m 0,0 km/h W 8,9 C 29,9 C 0,0 km/h
07.04.2018 16:00 31,4 C 25 % 1007,7 hPa 0,0 l/m 0,0 km/h W-NW 9,0 C 31,4 C 0,0 km/h
07.04.2018 17:00 29,5 C 25 % 1007,4 hPa 0,0 l/m 0,0 km/h W 7,4 C 29,5 C 0,0 km/h
07.04.2018 18:00 25,2 C 31 % 1006,9 hPa 0,0 l/m 0,0 km/h N 6,9 C 25,2 C 0,0 km/h
07.04.2018 19:00 18,9 C 46 % 1006,7 hPa 0,0 l/m 0,0 km/h N-NO 7,0 C 18,9 C 0,0 km/h
07.04.2018 20:00 14,1 C 60 % 1007,2 hPa 0,0 l/m 0,0 km/h NO 6,5 C 14,1 C 0,0 km/h
07.04.2018 21:00 12,7 C 67 % 1007,3 hPa 0,0 l/m 0,0 km/h NO 6,7 C 12,7 C 0,0 km/h
07.04.2018 22:00 12,4 C 70 % 1007,3 hPa 0,0 l/m 0,0 km/h NO 7,1 C 12,4 C 0,0 km/h
07.04.2018 23:00 10,9 C 75 % 1007,2 hPa 0,0 l/m 0,0 km/h NO 6,6 C 10,9 C 0,0 km/h
08.04.2018 00:00 10,1 C 76 % 1007,0 hPa 0,0 l/m 0,0 km/h N-NO 6,1 C 10,1 C 0,0 km/h
08.04.2018 01:00 9,4 C 77 % 1006,9 hPa 0,0 l/m 0,0 km/h NO 5,6 C 9,4 C 0,0 km/h
08.04.2018 02:00 8,9 C 77 % 1006,7 hPa 0,0 l/m 0,0 km/h NO 5,1 C 8,9 C 0,0 km/h
08.04.2018 03:00 7,6 C 81 % 1006,5 hPa 0,0 l/m 0,0 km/h O-SO 4,6 C 7,6 C 0,0 km/h
08.04.2018 04:00 7,3 C 81 % 1006,4 hPa 0,0 l/m 0,0 km/h NO 4,3 C 7,3 C 0,0 km/h
08.04.2018 05:00 6,9 C 82 % 1005,9 hPa 0,0 l/m 0,0 km/h NO 4,0 C 6,9 C 0,0 km/h
08.04.2018 06:00 7,6 C 83 % 1005,9 hPa 0,0 l/m 0,0 km/h O-NO 4,9 C 7,6 C 0,0 km/h
08.04.2018 07:00 9,9 C 81 % 1005,8 hPa 0,0 l/m 0,0 km/h O-NO 6,8 C 9,9 C 0,0 km/h
08.04.2018 08:00 11,6 C 77 % 1006,2 hPa 0,0 l/m 0,0 km/h NO 7,7 C 11,6 C 0,0 km/h
08.04.2018 09:00 18,0 C 64 % 1006,1 hPa 0,0 l/m 0,0 km/h W-NW 11,1 C 18,0 C 0,0 km/h
08.04.2018 10:00 22,1 C 47 % 1005,4 hPa 0,0 l/m 0,0 km/h NW 10,3 C 22,1 C 0,0 km/h
08.04.2018 11:00 24,5 C 43 % 1004,8 hPa 0,0 l/m 0,0 km/h W 11,1 C 24,5 C 0,0 km/h
08.04.2018 12:00 26,2 C 41 % 1004,0 hPa 0,0 l/m 0,0 km/h W-SW 11,9 C 26,2 C 0,0 km/h
08.04.2018 13:00 26,5 C 40 % 1003,2 hPa 0,0 l/m 9,1 km/h N-NW 11,8 C 26,0 C 5,0 km/h
08.04.2018 14:00 27,4 C 39 % 1002,6 hPa 0,0 l/m 0,0 km/h W-NW 12,2 C 27,4 C 0,0 km/h
08.04.2018 15:00 28,8 C 38 % 1002,1 hPa 0,0 l/m 0,0 km/h W-SW 13,0 C 28,8 C 0,0 km/h
08.04.2018 16:00 25,5 C 43 % 1001,8 hPa 0,0 l/m 20,7 km/h S-SW 12,0 C 23,2 C 11,5 km/h
08.04.2018 17:00 28,7 C 35 % 1001,5 hPa 0,0 l/m 0,0 km/h S-SW 11,7 C 28,7 C 0,0 km/h
08.04.2018 18:00 25,6 C 42 % 1001,6 hPa 0,0 l/m 0,0 km/h SO 11,7 C 25,6 C 0,0 km/h
08.04.2018 19:00 19,0 C 57 % 1001,8 hPa 0,0 l/m 0,0 km/h O-SO 10,3 C 19,0 C 0,0 km/h
08.04.2018 20:00 15,6 C 67 % 1002,3 hPa 0,0 l/m 0,0 km/h NO 9,5 C 15,6 C 0,0 km/h
08.04.2018 21:00 14,6 C 71 % 1002,2 hPa 0,0 l/m 0,0 km/h O-SO 9,4 C 14,6 C 0,0 km/h
08.04.2018 22:00 13,7 C 70 % 1001,8 hPa 0,0 l/m 0,0 km/h W-NW 8,3 C 13,7 C 0,0 km/h
08.04.2018 23:00 12,7 C 69 % 1002,4 hPa 0,0 l/m 0,0 km/h NO 7,2 C 12,7 C 0,0 km/h
Min-Datum _ 02.04.18 07.04.18 04.04.18 - 02.04.18 - 02.04.18 05.04.18 02.04.18
_ Min-Zeit 06:53 16:53 12:53 - 00:53 - 06:53 06:53 00:53
Minimum _ -0,1 C 25 % 999,9 hPa - 0,0 km/h - -2,8 C -0,9 C 0,0 km/h
Max-Datum _ 07.04.18 02.04.18 05.04.18 04.04.18 05.04.18 - 08.04.18 07.04.18 05.04.18
_ Max-Zeit 16:53 00:53 22:53 16:53 06:53 - 15:53 16:53 06:53
Maximum _ 31,4 C 85 % 1019,3 hPa 1,0 l/m 42,8 km/h
S-SW
- 13,0 C 31,4 C 23,8 km/h
S-SW
Durchschnitt _ 12,8 C 65 % 1007,9 hPa #3,6 l/m 4,2 km/h NO 5,8 C 11,9 C 2,3 km/h
www.sexauwetter.de